sensor_id;sensor_type;location;lat;lon;timestamp;P1;durP1;ratioP1;P2;durP2;ratioP2
15067;SDS011;7633;60.024;18.770;2023-07-30T00:01:49;2.10;;;1.90;;
15067;SDS011;7633;60.024;18.770;2023-07-30T00:04:15;2.20;;;1.95;;
15067;SDS011;7633;60.024;18.770;2023-07-30T00:06:41;2.30;;;2.10;;
15067;SDS011;7633;60.024;18.770;2023-07-30T00:09:06;2.33;;;1.90;;
15067;SDS011;7633;60.024;18.770;2023-07-30T00:11:32;3.25;;;1.73;;
15067;SDS011;7633;60.024;18.770;2023-07-30T00:13:57;2.22;;;1.83;;
15067;SDS011;7633;60.024;18.770;2023-07-30T00:16:25;2.20;;;2.00;;
15067;SDS011;7633;60.024;18.770;2023-07-30T00:18:51;2.15;;;1.95;;
15067;SDS011;7633;60.024;18.770;2023-07-30T00:21:17;2.17;;;1.90;;
15067;SDS011;7633;60.024;18.770;2023-07-30T00:23:42;3.80;;;2.00;;
15067;SDS011;7633;60.024;18.770;2023-07-30T00:26:08;2.10;;;1.90;;
15067;SDS011;7633;60.024;18.770;2023-07-30T00:28:34;2.42;;;2.17;;
15067;SDS011;7633;60.024;18.770;2023-07-30T00:31:00;2.63;;;1.80;;
15067;SDS011;7633;60.024;18.770;2023-07-30T00:33:25;2.15;;;1.95;;
15067;SDS011;7633;60.024;18.770;2023-07-30T00:35:51;2.90;;;2.00;;
15067;SDS011;7633;60.024;18.770;2023-07-30T00:38:18;2.03;;;1.90;;
15067;SDS011;7633;60.024;18.770;2023-07-30T00:40:44;2.00;;;1.90;;
15067;SDS011;7633;60.024;18.770;2023-07-30T00:43:10;2.28;;;1.95;;
15067;SDS011;7633;60.024;18.770;2023-07-30T00:45:36;2.10;;;1.73;;
15067;SDS011;7633;60.024;18.770;2023-07-30T00:48:01;1.73;;;1.63;;
15067;SDS011;7633;60.024;18.770;2023-07-30T00:50:27;2.10;;;1.90;;
15067;SDS011;7633;60.024;18.770;2023-07-30T00:52:53;2.65;;;2.10;;
15067;SDS011;7633;60.024;18.770;2023-07-30T00:55:21;2.30;;;1.95;;
15067;SDS011;7633;60.024;18.770;2023-07-30T00:57:46;2.28;;;1.67;;
15067;SDS011;7633;60.024;18.770;2023-07-30T01:00:13;2.58;;;1.75;;
15067;SDS011;7633;60.024;18.770;2023-07-30T01:02:39;1.95;;;1.80;;
15067;SDS011;7633;60.024;18.770;2023-07-30T01:05:05;2.22;;;1.77;;
15067;SDS011;7633;60.024;18.770;2023-07-30T01:07:31;2.05;;;1.85;;
15067;SDS011;7633;60.024;18.770;2023-07-30T01:09:57;2.58;;;1.77;;
15067;SDS011;7633;60.024;18.770;2023-07-30T01:12:23;2.78;;;1.75;;
15067;SDS011;7633;60.024;18.770;2023-07-30T01:14:49;1.95;;;1.70;;
15067;SDS011;7633;60.024;18.770;2023-07-30T01:17:15;2.30;;;1.55;;
15067;SDS011;7633;60.024;18.770;2023-07-30T01:19:41;2.60;;;1.75;;
15067;SDS011;7633;60.024;18.770;2023-07-30T01:22:07;2.20;;;1.75;;
15067;SDS011;7633;60.024;18.770;2023-07-30T01:24:33;3.10;;;2.03;;
15067;SDS011;7633;60.024;18.770;2023-07-30T01:27:02;3.45;;;2.15;;
15067;SDS011;7633;60.024;18.770;2023-07-30T01:29:32;1.95;;;1.77;;
15067;SDS011;7633;60.024;18.770;2023-07-30T01:32:00;2.50;;;2.17;;
15067;SDS011;7633;60.024;18.770;2023-07-30T01:34:27;1.90;;;1.80;;
15067;SDS011;7633;60.024;18.770;2023-07-30T01:36:53;1.98;;;1.80;;
15067;SDS011;7633;60.024;18.770;2023-07-30T01:39:20;2.50;;;1.92;;
15067;SDS011;7633;60.024;18.770;2023-07-30T01:41:46;2.88;;;1.80;;
15067;SDS011;7633;60.024;18.770;2023-07-30T01:44:11;2.40;;;2.20;;
15067;SDS011;7633;60.024;18.770;2023-07-30T01:46:37;2.30;;;2.10;;
15067;SDS011;7633;60.024;18.770;2023-07-30T01:49:02;2.58;;;2.13;;
15067;SDS011;7633;60.024;18.770;2023-07-30T01:51:28;2.53;;;2.30;;
15067;SDS011;7633;60.024;18.770;2023-07-30T01:53:54;2.25;;;1.80;;
15067;SDS011;7633;60.024;18.770;2023-07-30T01:56:19;2.47;;;1.88;;
15067;SDS011;7633;60.024;18.770;2023-07-30T01:58:45;2.20;;;2.00;;
15067;SDS011;7633;60.024;18.770;2023-07-30T02:01:11;2.30;;;2.10;;
15067;SDS011;7633;60.024;18.770;2023-07-30T02:03:37;2.45;;;1.98;;
15067;SDS011;7633;60.024;18.770;2023-07-30T02:06:02;2.03;;;1.83;;
15067;SDS011;7633;60.024;18.770;2023-07-30T02:08:28;2.55;;;2.20;;
15067;SDS011;7633;60.024;18.770;2023-07-30T02:10:57;3.72;;;2.10;;
15067;SDS011;7633;60.024;18.770;2023-07-30T02:13:23;4.00;;;1.88;;
15067;SDS011;7633;60.024;18.770;2023-07-30T02:15:48;2.25;;;1.90;;
15067;SDS011;7633;60.024;18.770;2023-07-30T02:18:14;2.58;;;2.20;;
15067;SDS011;7633;60.024;18.770;2023-07-30T02:20:39;3.10;;;2.13;;
15067;SDS011;7633;60.024;18.770;2023-07-30T02:23:05;2.20;;;2.00;;
15067;SDS011;7633;60.024;18.770;2023-07-30T02:25:30;2.03;;;1.83;;
15067;SDS011;7633;60.024;18.770;2023-07-30T02:27:57;2.58;;;2.38;;
15067;SDS011;7633;60.024;18.770;2023-07-30T02:30:22;2.08;;;1.90;;
15067;SDS011;7633;60.024;18.770;2023-07-30T02:32:48;3.30;;;2.50;;
15067;SDS011;7633;60.024;18.770;2023-07-30T02:35:13;2.10;;;1.90;;
15067;SDS011;7633;60.024;18.770;2023-07-30T02:37:39;2.45;;;2.15;;
15067;SDS011;7633;60.024;18.770;2023-07-30T02:40:04;2.25;;;2.05;;
15067;SDS011;7633;60.024;18.770;2023-07-30T02:42:30;2.50;;;2.20;;
15067;SDS011;7633;60.024;18.770;2023-07-30T02:44:56;2.25;;;2.05;;
15067;SDS011;7633;60.024;18.770;2023-07-30T02:47:22;2.42;;;2.20;;
15067;SDS011;7633;60.024;18.770;2023-07-30T02:49:47;4.65;;;2.22;;
15067;SDS011;7633;60.024;18.770;2023-07-30T02:52:13;2.50;;;2.30;;
15067;SDS011;7633;60.024;18.770;2023-07-30T02:54:38;2.30;;;2.10;;
15067;SDS011;7633;60.024;18.770;2023-07-30T02:57:04;2.55;;;2.10;;
15067;SDS011;7633;60.024;18.770;2023-07-30T02:59:30;2.13;;;1.92;;
15067;SDS011;7633;60.024;18.770;2023-07-30T03:01:55;2.60;;;2.40;;
15067;SDS011;7633;60.024;18.770;2023-07-30T03:04:21;2.53;;;1.88;;
15067;SDS011;7633;60.024;18.770;2023-07-30T03:06:46;2.42;;;1.70;;
15067;SDS011;7633;60.024;18.770;2023-07-30T03:09:12;2.47;;;2.28;;
15067;SDS011;7633;60.024;18.770;2023-07-30T03:11:37;3.63;;;2.67;;
15067;SDS011;7633;60.024;18.770;2023-07-30T03:14:03;2.20;;;2.00;;
15067;SDS011;7633;60.024;18.770;2023-07-30T03:16:28;3.33;;;2.42;;
15067;SDS011;7633;60.024;18.770;2023-07-30T03:18:54;2.80;;;2.22;;
15067;SDS011;7633;60.024;18.770;2023-07-30T03:21:19;2.35;;;2.15;;
15067;SDS011;7633;60.024;18.770;2023-07-30T03:23:45;2.60;;;2.10;;
15067;SDS011;7633;60.024;18.770;2023-07-30T03:26:13;2.35;;;2.15;;
15067;SDS011;7633;60.024;18.770;2023-07-30T03:28:38;2.42;;;2.22;;
15067;SDS011;7633;60.024;18.770;2023-07-30T03:31:04;2.80;;;2.60;;
15067;SDS011;7633;60.024;18.770;2023-07-30T03:33:30;2.75;;;2.45;;
15067;SDS011;7633;60.024;18.770;2023-07-30T03:35:56;2.75;;;2.42;;
15067;SDS011;7633;60.024;18.770;2023-07-30T03:38:22;2.40;;;2.25;;
15067;SDS011;7633;60.024;18.770;2023-07-30T03:40:48;2.20;;;2.10;;
15067;SDS011;7633;60.024;18.770;2023-07-30T03:43:13;2.67;;;2.22;;
15067;SDS011;7633;60.024;18.770;2023-07-30T03:45:39;2.45;;;2.22;;
15067;SDS011;7633;60.024;18.770;2023-07-30T03:48:05;2.47;;;2.28;;
15067;SDS011;7633;60.024;18.770;2023-07-30T03:50:30;2.20;;;2.00;;
15067;SDS011;7633;60.024;18.770;2023-07-30T03:52:55;2.35;;;2.10;;
15067;SDS011;7633;60.024;18.770;2023-07-30T03:55:22;2.55;;;2.35;;
15067;SDS011;7633;60.024;18.770;2023-07-30T03:57:47;2.60;;;2.40;;
15067;SDS011;7633;60.024;18.770;2023-07-30T04:00:13;3.00;;;2.50;;
15067;SDS011;7633;60.024;18.770;2023-07-30T04:02:38;2.70;;;2.50;;
15067;SDS011;7633;60.024;18.770;2023-07-30T04:05:04;3.22;;;2.20;;
15067;SDS011;7633;60.024;18.770;2023-07-30T04:07:29;3.92;;;2.40;;
15067;SDS011;7633;60.024;18.770;2023-07-30T04:09:55;2.83;;;2.53;;
15067;SDS011;7633;60.024;18.770;2023-07-30T04:12:20;2.55;;;2.17;;
15067;SDS011;7633;60.024;18.770;2023-07-30T04:14:47;3.42;;;2.25;;
15067;SDS011;7633;60.024;18.770;2023-07-30T04:17:13;4.05;;;2.67;;
15067;SDS011;7633;60.024;18.770;2023-07-30T04:19:38;2.50;;;2.30;;
15067;SDS011;7633;60.024;18.770;2023-07-30T04:22:04;2.50;;;2.30;;
15067;SDS011;7633;60.024;18.770;2023-07-30T04:24:29;3.00;;;2.70;;
15067;SDS011;7633;60.024;18.770;2023-07-30T04:26:55;2.47;;;2.28;;
15067;SDS011;7633;60.024;18.770;2023-07-30T04:29:20;2.45;;;2.25;;
15067;SDS011;7633;60.024;18.770;2023-07-30T04:31:45;2.47;;;2.28;;
15067;SDS011;7633;60.024;18.770;2023-07-30T04:34:11;2.40;;;2.20;;
15067;SDS011;7633;60.024;18.770;2023-07-30T04:36:36;2.90;;;2.67;;
15067;SDS011;7633;60.024;18.770;2023-07-30T04:39:02;3.53;;;2.67;;
15067;SDS011;7633;60.024;18.770;2023-07-30T04:41:27;2.33;;;2.13;;
15067;SDS011;7633;60.024;18.770;2023-07-30T04:43:53;2.20;;;2.00;;
15067;SDS011;7633;60.024;18.770;2023-07-30T04:46:19;3.45;;;2.40;;
15067;SDS011;7633;60.024;18.770;2023-07-30T04:48:44;2.60;;;2.40;;
15067;SDS011;7633;60.024;18.770;2023-07-30T04:51:10;3.85;;;2.50;;
15067;SDS011;7633;60.024;18.770;2023-07-30T04:53:36;3.25;;;2.72;;
15067;SDS011;7633;60.024;18.770;2023-07-30T04:56:02;3.15;;;2.35;;
15067;SDS011;7633;60.024;18.770;2023-07-30T04:58:27;2.45;;;2.25;;
15067;SDS011;7633;60.024;18.770;2023-07-30T05:00:54;2.42;;;2.22;;
15067;SDS011;7633;60.024;18.770;2023-07-30T05:03:19;2.75;;;2.55;;
15067;SDS011;7633;60.024;18.770;2023-07-30T05:05:44;2.42;;;2.22;;
15067;SDS011;7633;60.024;18.770;2023-07-30T05:08:10;2.47;;;2.28;;
15067;SDS011;7633;60.024;18.770;2023-07-30T05:10:36;2.92;;;2.20;;
15067;SDS011;7633;60.024;18.770;2023-07-30T05:13:02;3.10;;;2.55;;
15067;SDS011;7633;60.024;18.770;2023-07-30T05:15:28;2.40;;;2.20;;
15067;SDS011;7633;60.024;18.770;2023-07-30T05:17:53;2.40;;;2.20;;
15067;SDS011;7633;60.024;18.770;2023-07-30T05:20:19;2.58;;;2.38;;
15067;SDS011;7633;60.024;18.770;2023-07-30T05:22:44;2.20;;;2.10;;
15067;SDS011;7633;60.024;18.770;2023-07-30T05:25:10;2.40;;;2.20;;
15067;SDS011;7633;60.024;18.770;2023-07-30T05:27:36;2.70;;;2.50;;
15067;SDS011;7633;60.024;18.770;2023-07-30T05:30:02;2.92;;;2.38;;
15067;SDS011;7633;60.024;18.770;2023-07-30T05:32:27;2.38;;;2.28;;
15067;SDS011;7633;60.024;18.770;2023-07-30T05:34:53;2.13;;;1.92;;
15067;SDS011;7633;60.024;18.770;2023-07-30T05:37:21;2.60;;;2.40;;
15067;SDS011;7633;60.024;18.770;2023-07-30T05:39:48;2.40;;;2.20;;
15067;SDS011;7633;60.024;18.770;2023-07-30T05:42:14;2.65;;;2.22;;
15067;SDS011;7633;60.024;18.770;2023-07-30T05:44:39;3.00;;;2.67;;
15067;SDS011;7633;60.024;18.770;2023-07-30T05:47:05;2.33;;;2.13;;
15067;SDS011;7633;60.024;18.770;2023-07-30T05:49:31;2.28;;;2.08;;
15067;SDS011;7633;60.024;18.770;2023-07-30T05:51:56;2.50;;;2.30;;
15067;SDS011;7633;60.024;18.770;2023-07-30T05:54:22;2.60;;;2.40;;
15067;SDS011;7633;60.024;18.770;2023-07-30T05:56:47;2.45;;;2.25;;
15067;SDS011;7633;60.024;18.770;2023-07-30T05:59:12;2.50;;;2.30;;
15067;SDS011;7633;60.024;18.770;2023-07-30T06:01:39;2.40;;;2.17;;
15067;SDS011;7633;60.024;18.770;2023-07-30T06:04:05;2.47;;;2.28;;
15067;SDS011;7633;60.024;18.770;2023-07-30T06:06:31;2.70;;;2.40;;
15067;SDS011;7633;60.024;18.770;2023-07-30T06:08:56;2.50;;;2.30;;
15067;SDS011;7633;60.024;18.770;2023-07-30T06:11:22;1.92;;;1.80;;
15067;SDS011;7633;60.024;18.770;2023-07-30T06:13:48;2.20;;;2.00;;
15067;SDS011;7633;60.024;18.770;2023-07-30T06:16:13;2.25;;;2.05;;
15067;SDS011;7633;60.024;18.770;2023-07-30T06:18:39;2.83;;;2.05;;
15067;SDS011;7633;60.024;18.770;2023-07-30T06:21:04;2.47;;;2.28;;
15067;SDS011;7633;60.024;18.770;2023-07-30T06:23:30;2.47;;;2.22;;
15067;SDS011;7633;60.024;18.770;2023-07-30T06:25:55;2.30;;;2.10;;
15067;SDS011;7633;60.024;18.770;2023-07-30T06:28:20;3.42;;;1.95;;
15067;SDS011;7633;60.024;18.770;2023-07-30T06:30:46;2.92;;;2.38;;
15067;SDS011;7633;60.024;18.770;2023-07-30T06:33:11;2.30;;;2.10;;
15067;SDS011;7633;60.024;18.770;2023-07-30T06:35:37;2.53;;;2.33;;
15067;SDS011;7633;60.024;18.770;2023-07-30T06:38:02;2.33;;;2.10;;
15067;SDS011;7633;60.024;18.770;2023-07-30T06:40:28;1.80;;;1.70;;
15067;SDS011;7633;60.024;18.770;2023-07-30T06:42:53;3.17;;;2.63;;
15067;SDS011;7633;60.024;18.770;2023-07-30T06:45:19;3.15;;;1.90;;
15067;SDS011;7633;60.024;18.770;2023-07-30T06:47:44;2.13;;;2.03;;
15067;SDS011;7633;60.024;18.770;2023-07-30T06:50:10;2.30;;;2.10;;
15067;SDS011;7633;60.024;18.770;2023-07-30T06:52:35;2.20;;;2.00;;
15067;SDS011;7633;60.024;18.770;2023-07-30T06:55:01;3.05;;;2.40;;
15067;SDS011;7633;60.024;18.770;2023-07-30T06:57:28;2.88;;;2.33;;
15067;SDS011;7633;60.024;18.770;2023-07-30T06:59:54;2.20;;;2.00;;
15067;SDS011;7633;60.024;18.770;2023-07-30T07:02:19;2.08;;;1.98;;
15067;SDS011;7633;60.024;18.770;2023-07-30T07:04:44;2.58;;;2.35;;
15067;SDS011;7633;60.024;18.770;2023-07-30T07:07:10;2.20;;;2.00;;
15067;SDS011;7633;60.024;18.770;2023-07-30T07:09:35;2.03;;;1.92;;
15067;SDS011;7633;60.024;18.770;2023-07-30T07:12:00;2.17;;;2.08;;
15067;SDS011;7633;60.024;18.770;2023-07-30T07:14:26;2.33;;;2.13;;
15067;SDS011;7633;60.024;18.770;2023-07-30T07:16:52;2.80;;;2.28;;
15067;SDS011;7633;60.024;18.770;2023-07-30T07:19:17;2.30;;;2.10;;
15067;SDS011;7633;60.024;18.770;2023-07-30T07:21:43;2.55;;;2.35;;
15067;SDS011;7633;60.024;18.770;2023-07-30T07:24:08;2.47;;;2.28;;
15067;SDS011;7633;60.024;18.770;2023-07-30T07:26:34;2.60;;;2.35;;
15067;SDS011;7633;60.024;18.770;2023-07-30T07:28:59;2.55;;;2.28;;
15067;SDS011;7633;60.024;18.770;2023-07-30T07:31:25;2.53;;;2.28;;
15067;SDS011;7633;60.024;18.770;2023-07-30T07:33:50;2.08;;;1.90;;
15067;SDS011;7633;60.024;18.770;2023-07-30T07:36:16;2.20;;;2.00;;
15067;SDS011;7633;60.024;18.770;2023-07-30T07:38:42;2.30;;;2.10;;
15067;SDS011;7633;60.024;18.770;2023-07-30T07:41:07;2.45;;;2.25;;
15067;SDS011;7633;60.024;18.770;2023-07-30T07:43:33;2.40;;;2.20;;
15067;SDS011;7633;60.024;18.770;2023-07-30T07:45:58;2.55;;;2.35;;
15067;SDS011;7633;60.024;18.770;2023-07-30T07:48:23;3.47;;;2.28;;
15067;SDS011;7633;60.024;18.770;2023-07-30T07:50:49;2.28;;;2.08;;
15067;SDS011;7633;60.024;18.770;2023-07-30T07:53:15;2.40;;;2.20;;
15067;SDS011;7633;60.024;18.770;2023-07-30T07:55:40;2.80;;;2.38;;
15067;SDS011;7633;60.024;18.770;2023-07-30T07:58:05;2.75;;;2.40;;
15067;SDS011;7633;60.024;18.770;2023-07-30T08:00:31;2.40;;;2.20;;
15067;SDS011;7633;60.024;18.770;2023-07-30T08:02:56;2.38;;;2.17;;
15067;SDS011;7633;60.024;18.770;2023-07-30T08:05:21;2.83;;;2.55;;
15067;SDS011;7633;60.024;18.770;2023-07-30T08:07:47;2.80;;;2.55;;
15067;SDS011;7633;60.024;18.770;2023-07-30T08:10:12;2.83;;;2.50;;
15067;SDS011;7633;60.024;18.770;2023-07-30T08:12:38;2.55;;;2.35;;
15067;SDS011;7633;60.024;18.770;2023-07-30T08:15:04;2.55;;;2.35;;
15067;SDS011;7633;60.024;18.770;2023-07-30T08:17:29;3.08;;;2.70;;
15067;SDS011;7633;60.024;18.770;2023-07-30T08:19:55;2.50;;;2.30;;
15067;SDS011;7633;60.024;18.770;2023-07-30T08:22:20;2.47;;;2.25;;
15067;SDS011;7633;60.024;18.770;2023-07-30T08:24:46;2.92;;;2.63;;
15067;SDS011;7633;60.024;18.770;2023-07-30T08:27:11;3.70;;;2.92;;
15067;SDS011;7633;60.024;18.770;2023-07-30T08:29:37;2.70;;;2.50;;
15067;SDS011;7633;60.024;18.770;2023-07-30T08:32:02;2.92;;;2.30;;
15067;SDS011;7633;60.024;18.770;2023-07-30T08:34:28;2.60;;;2.40;;
15067;SDS011;7633;60.024;18.770;2023-07-30T08:36:53;2.30;;;2.10;;
15067;SDS011;7633;60.024;18.770;2023-07-30T08:39:19;2.65;;;2.45;;
15067;SDS011;7633;60.024;18.770;2023-07-30T08:41:45;2.30;;;2.10;;
15067;SDS011;7633;60.024;18.770;2023-07-30T08:44:10;2.30;;;2.10;;
15067;SDS011;7633;60.024;18.770;2023-07-30T08:46:39;3.40;;;2.30;;
15067;SDS011;7633;60.024;18.770;2023-07-30T08:49:04;2.17;;;2.08;;
15067;SDS011;7633;60.024;18.770;2023-07-30T08:51:30;3.03;;;2.20;;
15067;SDS011;7633;60.024;18.770;2023-07-30T08:53:57;2.30;;;2.10;;
15067;SDS011;7633;60.024;18.770;2023-07-30T08:56:22;2.50;;;2.25;;
15067;SDS011;7633;60.024;18.770;2023-07-30T08:58:48;2.80;;;2.60;;
15067;SDS011;7633;60.024;18.770;2023-07-30T09:01:16;2.10;;;2.00;;
15067;SDS011;7633;60.024;18.770;2023-07-30T09:03:43;2.30;;;2.10;;
15067;SDS011;7633;60.024;18.770;2023-07-30T09:06:09;2.50;;;2.30;;
15067;SDS011;7633;60.024;18.770;2023-07-30T09:08:34;2.45;;;2.25;;
15067;SDS011;7633;60.024;18.770;2023-07-30T09:11:07;2.40;;;1.98;;
15067;SDS011;7633;60.024;18.770;2023-07-30T09:13:36;2.35;;;2.03;;
15067;SDS011;7633;60.024;18.770;2023-07-30T09:16:13;2.72;;;2.17;;
15067;SDS011;7633;60.024;18.770;2023-07-30T09:18:41;2.85;;;2.30;;
15067;SDS011;7633;60.024;18.770;2023-07-30T09:21:09;2.47;;;2.25;;
15067;SDS011;7633;60.024;18.770;2023-07-30T09:23:39;2.17;;;1.98;;
15067;SDS011;7633;60.024;18.770;2023-07-30T09:26:05;2.60;;;2.40;;
15067;SDS011;7633;60.024;18.770;2023-07-30T09:28:31;2.42;;;2.22;;
15067;SDS011;7633;60.024;18.770;2023-07-30T09:31:04;2.60;;;2.30;;
15067;SDS011;7633;60.024;18.770;2023-07-30T09:33:31;2.47;;;2.28;;
15067;SDS011;7633;60.024;18.770;2023-07-30T09:36:01;2.60;;;2.30;;
15067;SDS011;7633;60.024;18.770;2023-07-30T09:38:27;3.65;;;2.22;;
15067;SDS011;7633;60.024;18.770;2023-07-30T09:41:00;2.65;;;2.40;;
15067;SDS011;7633;60.024;18.770;2023-07-30T09:43:29;2.67;;;2.47;;
15067;SDS011;7633;60.024;18.770;2023-07-30T09:46:00;2.45;;;2.25;;
15067;SDS011;7633;60.024;18.770;2023-07-30T09:48:26;2.75;;;2.55;;
15067;SDS011;7633;60.024;18.770;2023-07-30T09:50:52;2.60;;;2.40;;
15067;SDS011;7633;60.024;18.770;2023-07-30T09:53:19;3.00;;;2.55;;
15067;SDS011;7633;60.024;18.770;2023-07-30T09:55:45;2.75;;;2.40;;
15067;SDS011;7633;60.024;18.770;2023-07-30T09:58:10;2.60;;;2.40;;
15067;SDS011;7633;60.024;18.770;2023-07-30T10:00:37;3.42;;;2.60;;
15067;SDS011;7633;60.024;18.770;2023-07-30T10:03:02;2.47;;;2.25;;
15067;SDS011;7633;60.024;18.770;2023-07-30T10:05:31;2.60;;;2.40;;
15067;SDS011;7633;60.024;18.770;2023-07-30T10:08:19;3.42;;;2.38;;
15067;SDS011;7633;60.024;18.770;2023-07-30T10:10:45;2.22;;;2.03;;
15067;SDS011;7633;60.024;18.770;2023-07-30T10:13:11;2.50;;;2.30;;
15067;SDS011;7633;60.024;18.770;2023-07-30T10:15:38;2.40;;;2.17;;
15067;SDS011;7633;60.024;18.770;2023-07-30T10:18:04;2.35;;;2.17;;
15067;SDS011;7633;60.024;18.770;2023-07-30T10:20:30;2.50;;;2.30;;
15067;SDS011;7633;60.024;18.770;2023-07-30T10:22:57;2.53;;;2.30;;
15067;SDS011;7633;60.024;18.770;2023-07-30T10:28:07;2.28;;;2.08;;
15067;SDS011;7633;60.024;18.770;2023-07-30T10:30:33;2.70;;;2.50;;
15067;SDS011;7633;60.024;18.770;2023-07-30T10:33:06;2.38;;;2.17;;
15067;SDS011;7633;60.024;18.770;2023-07-30T10:38:11;2.60;;;2.40;;
15067;SDS011;7633;60.024;18.770;2023-07-30T10:40:38;2.63;;;2.42;;
15067;SDS011;7633;60.024;18.770;2023-07-30T10:43:13;3.13;;;2.70;;
15067;SDS011;7633;60.024;18.770;2023-07-30T10:45:47;4.40;;;2.88;;
15067;SDS011;7633;60.024;18.770;2023-07-30T10:48:15;4.18;;;3.22;;
15067;SDS011;7633;60.024;18.770;2023-07-30T10:50:42;3.58;;;3.05;;
15067;SDS011;7633;60.024;18.770;2023-07-30T10:53:08;3.72;;;3.42;;
15067;SDS011;7633;60.024;18.770;2023-07-30T10:55:34;3.92;;;3.15;;
15067;SDS011;7633;60.024;18.770;2023-07-30T10:58:00;2.90;;;2.70;;
15067;SDS011;7633;60.024;18.770;2023-07-30T11:00:26;2.25;;;1.80;;
15067;SDS011;7633;60.024;18.770;2023-07-30T11:02:55;2.25;;;1.92;;
15067;SDS011;7633;60.024;18.770;2023-07-30T11:05:20;2.90;;;2.10;;
15067;SDS011;7633;60.024;18.770;2023-07-30T11:07:54;5.03;;;2.40;;
15067;SDS011;7633;60.024;18.770;2023-07-30T11:10:20;3.20;;;2.70;;
15067;SDS011;7633;60.024;18.770;2023-07-30T11:12:49;3.28;;;2.35;;
15067;SDS011;7633;60.024;18.770;2023-07-30T11:15:15;3.60;;;2.70;;
15067;SDS011;7633;60.024;18.770;2023-07-30T11:17:40;3.22;;;2.15;;
15067;SDS011;7633;60.024;18.770;2023-07-30T11:20:21;1.55;;;1.45;;
15067;SDS011;7633;60.024;18.770;2023-07-30T11:22:46;3.55;;;1.70;;
15067;SDS011;7633;60.024;18.770;2023-07-30T11:25:18;2.78;;;2.55;;
15067;SDS011;7633;60.024;18.770;2023-07-30T11:27:47;2.10;;;1.90;;
15067;SDS011;7633;60.024;18.770;2023-07-30T11:30:12;2.10;;;1.83;;
15067;SDS011;7633;60.024;18.770;2023-07-30T11:32:38;2.58;;;2.38;;
15067;SDS011;7633;60.024;18.770;2023-07-30T11:35:04;2.92;;;2.13;;
15067;SDS011;7633;60.024;18.770;2023-07-30T11:37:30;2.53;;;2.30;;
15067;SDS011;7633;60.024;18.770;2023-07-30T11:39:56;4.03;;;2.35;;
15067;SDS011;7633;60.024;18.770;2023-07-30T11:42:22;5.88;;;2.55;;
15067;SDS011;7633;60.024;18.770;2023-07-30T11:44:48;2.25;;;2.05;;
15067;SDS011;7633;60.024;18.770;2023-07-30T11:47:20;4.13;;;3.10;;
15067;SDS011;7633;60.024;18.770;2023-07-30T11:49:56;3.13;;;2.20;;
15067;SDS011;7633;60.024;18.770;2023-07-30T11:52:26;3.97;;;2.50;;
15067;SDS011;7633;60.024;18.770;2023-07-30T11:55:04;2.83;;;2.20;;
15067;SDS011;7633;60.024;18.770;2023-07-30T11:57:34;2.65;;;2.45;;
15067;SDS011;7633;60.024;18.770;2023-07-30T11:59:59;2.55;;;2.13;;
15067;SDS011;7633;60.024;18.770;2023-07-30T12:02:25;5.05;;;2.80;;
15067;SDS011;7633;60.024;18.770;2023-07-30T12:04:50;4.60;;;2.50;;
15067;SDS011;7633;60.024;18.770;2023-07-30T12:07:25;2.58;;;2.13;;
15067;SDS011;7633;60.024;18.770;2023-07-30T12:09:50;2.42;;;2.22;;
15067;SDS011;7633;60.024;18.770;2023-07-30T12:12:16;2.38;;;2.17;;
15067;SDS011;7633;60.024;18.770;2023-07-30T12:14:52;2.53;;;2.28;;
15067;SDS011;7633;60.024;18.770;2023-07-30T12:17:17;4.15;;;2.28;;
15067;SDS011;7633;60.024;18.770;2023-07-30T12:19:43;2.78;;;2.47;;
15067;SDS011;7633;60.024;18.770;2023-07-30T12:22:09;2.67;;;2.42;;
15067;SDS011;7633;60.024;18.770;2023-07-30T12:24:34;2.47;;;2.38;;
15067;SDS011;7633;60.024;18.770;2023-07-30T12:27:00;3.08;;;2.75;;
15067;SDS011;7633;60.024;18.770;2023-07-30T12:29:25;2.53;;;2.33;;
15067;SDS011;7633;60.024;18.770;2023-07-30T12:31:51;2.33;;;2.22;;
15067;SDS011;7633;60.024;18.770;2023-07-30T12:34:18;2.70;;;2.50;;
15067;SDS011;7633;60.024;18.770;2023-07-30T12:36:44;2.50;;;2.30;;
15067;SDS011;7633;60.024;18.770;2023-07-30T12:39:10;2.30;;;2.08;;
15067;SDS011;7633;60.024;18.770;2023-07-30T12:41:39;2.00;;;1.90;;
15067;SDS011;7633;60.024;18.770;2023-07-30T12:44:05;2.60;;;2.40;;
15067;SDS011;7633;60.024;18.770;2023-07-30T12:46:34;2.30;;;2.20;;
15067;SDS011;7633;60.024;18.770;2023-07-30T12:49:01;2.10;;;2.00;;
15067;SDS011;7633;60.024;18.770;2023-07-30T12:51:30;2.50;;;2.30;;
15067;SDS011;7633;60.024;18.770;2023-07-30T12:53:55;2.50;;;2.30;;
15067;SDS011;7633;60.024;18.770;2023-07-30T12:56:24;2.00;;;1.90;;
15067;SDS011;7633;60.024;18.770;2023-07-30T12:58:49;2.50;;;2.30;;
15067;SDS011;7633;60.024;18.770;2023-07-30T13:01:15;2.47;;;2.28;;
15067;SDS011;7633;60.024;18.770;2023-07-30T13:03:40;2.45;;;2.22;;
15067;SDS011;7633;60.024;18.770;2023-07-30T13:06:13;2.17;;;2.08;;
15067;SDS011;7633;60.024;18.770;2023-07-30T13:08:38;2.17;;;1.98;;
15067;SDS011;7633;60.024;18.770;2023-07-30T13:11:08;1.98;;;1.88;;
15067;SDS011;7633;60.024;18.770;2023-07-30T13:13:35;2.40;;;2.20;;
15067;SDS011;7633;60.024;18.770;2023-07-30T13:16:01;2.22;;;2.03;;
15067;SDS011;7633;60.024;18.770;2023-07-30T13:18:32;2.20;;;2.10;;
15067;SDS011;7633;60.024;18.770;2023-07-30T13:21:02;2.00;;;1.80;;
15067;SDS011;7633;60.024;18.770;2023-07-30T13:23:28;2.08;;;1.88;;
15067;SDS011;7633;60.024;18.770;2023-07-30T13:25:55;2.25;;;2.05;;
15067;SDS011;7633;60.024;18.770;2023-07-30T13:28:21;2.30;;;2.10;;
15067;SDS011;7633;60.024;18.770;2023-07-30T13:30:47;1.98;;;1.83;;
15067;SDS011;7633;60.024;18.770;2023-07-30T13:33:16;1.92;;;1.83;;
15067;SDS011;7633;60.024;18.770;2023-07-30T13:35:41;2.05;;;1.90;;
15067;SDS011;7633;60.024;18.770;2023-07-30T13:38:07;1.90;;;1.63;;
15067;SDS011;7633;60.024;18.770;2023-07-30T13:40:33;1.73;;;1.63;;
15067;SDS011;7633;60.024;18.770;2023-07-30T13:42:58;2.30;;;1.92;;
15067;SDS011;7633;60.024;18.770;2023-07-30T13:45:24;1.90;;;1.80;;
15067;SDS011;7633;60.024;18.770;2023-07-30T13:47:49;5.78;;;1.73;;
15067;SDS011;7633;60.024;18.770;2023-07-30T13:50:15;1.73;;;1.63;;
15067;SDS011;7633;60.024;18.770;2023-07-30T13:52:40;1.63;;;1.52;;
15067;SDS011;7633;60.024;18.770;2023-07-30T13:55:06;1.30;;;1.20;;
15067;SDS011;7633;60.024;18.770;2023-07-30T13:57:31;1.52;;;1.20;;
15067;SDS011;7633;60.024;18.770;2023-07-30T13:59:57;1.20;;;1.10;;
15067;SDS011;7633;60.024;18.770;2023-07-30T14:02:22;1.60;;;1.50;;
15067;SDS011;7633;60.024;18.770;2023-07-30T14:04:48;1.13;;;1.02;;
15067;SDS011;7633;60.024;18.770;2023-07-30T14:07:13;1.77;;;1.40;;
15067;SDS011;7633;60.024;18.770;2023-07-30T14:09:39;1.33;;;1.23;;
15067;SDS011;7633;60.024;18.770;2023-07-30T14:12:06;1.20;;;1.10;;
15067;SDS011;7633;60.024;18.770;2023-07-30T14:14:36;1.20;;;1.10;;
15067;SDS011;7633;60.024;18.770;2023-07-30T14:17:01;1.40;;;1.30;;
15067;SDS011;7633;60.024;18.770;2023-07-30T14:19:31;1.88;;;1.40;;
15067;SDS011;7633;60.024;18.770;2023-07-30T14:21:58;1.60;;;1.50;;
15067;SDS011;7633;60.024;18.770;2023-07-30T14:24:23;1.00;;;1.00;;
15067;SDS011;7633;60.024;18.770;2023-07-30T14:26:49;1.30;;;1.20;;
15067;SDS011;7633;60.024;18.770;2023-07-30T14:29:16;1.30;;;1.20;;
15067;SDS011;7633;60.024;18.770;2023-07-30T14:31:42;1.92;;;1.20;;
15067;SDS011;7633;60.024;18.770;2023-07-30T14:34:08;1.30;;;1.20;;
15067;SDS011;7633;60.024;18.770;2023-07-30T14:36:33;1.30;;;1.20;;
15067;SDS011;7633;60.024;18.770;2023-07-30T14:38:58;1.10;;;1.00;;
15067;SDS011;7633;60.024;18.770;2023-07-30T14:41:24;1.90;;;1.38;;
15067;SDS011;7633;60.024;18.770;2023-07-30T14:43:50;1.60;;;1.50;;
15067;SDS011;7633;60.024;18.770;2023-07-30T14:46:15;1.40;;;1.30;;
15067;SDS011;7633;60.024;18.770;2023-07-30T14:48:41;1.70;;;1.42;;